Time;durP1;ratioP1;P1;durP2;ratioP2;P2;SDS_P1;SDS_P2;PMS_P1;PMS_P2;Temp;Humidity;BMP_temperature;BMP_pressure;BME280_temperature;BME280_humidity;BME280_pressure;Samples;Min_cycle;Max_cycle;Signal;HPM_P1;HPM_P2
2023/01/11 00:00:23;;;;;;;11.53;10.53;;;4.80;99.90;;;;;;5036225;28;20178;-78
2023/01/11 00:03:00;;;;;;;12.70;11.67;;;4.90;99.90;;;;;;5037828;28;20724;-78
2023/01/11 00:05:27;;;;;;;12.30;11.20;;;4.90;99.90;;;;;;5038343;28;20221;-79
2023/01/11 00:07:53;;;;;;;11.83;10.97;;;4.90;99.90;;;;;;5039606;28;20266;-78
2023/01/11 00:10:19;;;;;;;12.63;11.73;;;5.00;99.90;;;;;;5027301;28;20183;-78
2023/01/11 00:12:45;;;;;;;12.13;11.23;;;4.90;99.90;;;;;;5024196;28;20183;-78
2023/01/11 00:15:11;;;;;;;13.77;12.77;;;4.90;99.90;;;;;;5021266;28;20246;-78
2023/01/11 00:17:37;;;;;;;14.70;13.53;;;5.00;99.90;;;;;;5017241;28;20183;-78
2023/01/11 00:20:07;;;;;;;10.87;9.87;;;5.00;99.90;;;;;;5022863;28;20195;-78
2023/01/11 00:22:32;;;;;;;7.93;7.13;;;5.00;99.90;;;;;;5021565;28;20278;-78
2023/01/11 00:24:58;;;;;;;12.17;11.17;;;5.00;99.90;;;;;;5020969;28;20239;-78
2023/01/11 00:27:24;;;;;;;14.37;12.90;;;5.00;99.90;;;;;;5019029;28;20651;-78
2023/01/11 00:29:49;;;;;;;9.80;8.93;;;5.00;99.90;;;;;;5015925;28;20876;-77
2023/01/11 00:32:15;;;;;;;10.80;10.10;;;5.00;99.90;;;;;;5014484;28;20187;-77
2023/01/11 00:34:41;;;;;;;8.50;7.30;;;5.10;99.90;;;;;;5013990;28;20215;-77
2023/01/11 00:37:07;;;;;;;9.40;8.43;;;5.10;99.90;;;;;;5015621;28;20217;-77
2023/01/11 00:39:32;;;;;;;10.40;9.30;;;5.10;99.90;;;;;;5033630;28;20202;-77
2023/01/11 00:50:12;;;;;;;7.37;6.67;;;5.20;99.90;;;;;;5027591;28;20178;-77
2023/01/11 00:52:38;;;;;;;8.93;6.53;;;5.20;99.90;;;;;;5018026;28;20270;-77
2023/01/11 00:55:04;;;;;;;8.00;6.60;;;5.20;99.90;;;;;;5015004;28;20321;-77
2023/01/11 00:57:30;;;;;;;6.77;6.17;;;5.20;99.90;;;;;;5011995;28;20370;-77
2023/01/11 00:59:55;;;;;;;6.97;6.37;;;5.20;99.90;;;;;;5011539;28;20201;-77
2023/01/11 01:02:21;;;;;;;6.47;5.97;;;5.20;99.90;;;;;;5021637;28;20225;-77
2023/01/11 01:04:47;;;;;;;8.27;6.33;;;5.20;99.90;;;;;;5032033;28;20591;-77
2023/01/11 01:07:13;;;;;;;7.13;6.53;;;5.30;99.90;;;;;;5030749;28;20209;-78
2023/01/11 01:09:38;;;;;;;8.10;5.87;;;5.30;99.90;;;;;;5034098;28;20199;-77
2023/01/11 01:12:05;;;;;;;8.40;6.87;;;5.30;99.90;;;;;;5035057;28;20587;-77
2023/01/11 01:14:32;;;;;;;6.77;6.27;;;5.30;99.90;;;;;;5036211;28;20707;-77
2023/01/11 01:16:59;;;;;;;7.17;6.67;;;5.20;99.90;;;;;;5021754;28;20206;-78
2023/01/11 01:19:28;;;;;;;7.90;6.67;;;5.20;99.90;;;;;;5017388;28;20180;-78
2023/01/11 01:21:55;;;;;;;14.20;13.23;;;5.20;99.90;;;;;;5016406;28;20183;-78
2023/01/11 01:24:21;;;;;;;13.97;12.83;;;5.20;99.90;;;;;;5028139;28;20203;-78
2023/01/11 01:26:47;;;;;;;14.27;13.23;;;5.10;99.90;;;;;;5022848;28;20265;-77
2023/01/11 01:29:14;;;;;;;10.70;10.10;;;5.10;99.90;;;;;;5021381;28;20285;-79
2023/01/11 01:31:41;;;;;;;10.70;9.77;;;5.00;99.90;;;;;;5035170;28;20666;-78
2023/01/11 01:34:08;;;;;;;10.40;9.60;;;5.00;99.90;;;;;;5037842;28;20203;-79
2023/01/11 01:36:34;;;;;;;9.70;9.10;;;5.00;99.90;;;;;;5039544;28;20175;-78
2023/01/11 01:39:01;;;;;;;9.13;8.57;;;5.10;99.90;;;;;;5037310;28;20190;-78
2023/01/11 01:41:29;;;;;;;9.27;8.50;;;5.10;99.90;;;;;;5039746;28;20175;-78
2023/01/11 01:43:59;;;;;;;12.93;8.80;;;5.10;99.90;;;;;;5039618;28;20187;-78
2023/01/11 01:46:28;;;;;;;9.00;8.50;;;5.10;99.90;;;;;;5019903;28;20190;-78
2023/01/11 01:49:05;;;;;;;8.87;8.37;;;5.10;99.90;;;;;;5018001;28;20184;-78
2023/01/11 01:51:38;;;;;;;9.37;8.57;;;5.20;99.90;;;;;;5017599;28;20245;-78
2023/01/11 01:54:09;;;;;;;9.10;8.40;;;5.20;99.90;;;;;;5017052;28;20521;-78
2023/01/11 01:56:40;;;;;;;8.97;8.47;;;5.10;99.90;;;;;;5018653;28;20180;-77
2023/01/11 01:59:12;;;;;;;10.27;7.77;;;5.10;99.90;;;;;;5028231;28;20185;-78
2023/01/11 02:01:48;;;;;;;8.83;6.60;;;5.00;99.90;;;;;;5040183;28;20206;-78
2023/01/11 02:04:19;;;;;;;7.77;7.17;;;5.00;99.90;;;;;;5027208;28;20218;-78
2023/01/11 02:06:44;;;;;;;8.07;7.33;;;5.00;99.90;;;;;;5014022;28;20188;-78
2023/01/11 02:09:39;;;;;;;8.00;7.40;;;4.90;99.90;;;;;;5020210;28;20198;-78
2023/01/11 02:12:07;;;;;;;6.77;6.20;;;4.90;99.90;;;;;;5020761;28;20207;-78
2023/01/11 02:14:35;;;;;;;6.90;6.30;;;4.80;99.90;;;;;;5038852;28;20249;-78
2023/01/11 02:17:01;;;;;;;10.20;6.67;;;4.80;99.90;;;;;;5039494;28;20264;-78
2023/01/11 02:20:11;;;;;;;6.73;6.03;;;4.80;99.90;;;;;;5039844;28;20175;-78
2023/01/11 02:22:55;;;;;;;6.57;6.23;;;4.70;99.90;;;;;;5038131;28;20179;-78
2023/01/11 02:25:36;;;;;;;7.20;6.80;;;4.70;99.90;;;;;;5041911;28;20305;-78
2023/01/11 02:28:25;;;;;;;6.20;5.83;;;4.80;99.90;;;;;;5024920;28;20238;-78
2023/01/11 02:31:06;;;;;;;6.50;6.00;;;4.80;99.90;;;;;;5018187;28;20191;-77
2023/01/11 02:33:31;;;;;;;7.10;6.70;;;4.80;99.90;;;;;;5018479;28;20210;-77
2023/01/11 02:36:15;;;;;;;6.87;6.43;;;4.80;99.90;;;;;;5032118;28;20196;-79
2023/01/11 02:38:51;;;;;;;6.63;6.13;;;4.70;99.90;;;;;;5009490;28;20187;-77
2023/01/11 02:45:01;;;;;;;15.93;15.03;;;4.80;99.90;;;;;;5020247;28;20293;-77
2023/01/11 02:47:56;;;;;;;19.17;17.70;;;4.80;99.90;;;;;;5015631;28;20191;-77
2023/01/11 02:50:44;;;;;;;17.50;16.50;;;4.80;99.90;;;;;;5024266;28;20186;-78
2023/01/11 02:53:30;;;;;;;22.40;20.90;;;4.80;99.90;;;;;;5030586;28;20183;-77
2023/01/11 02:56:02;;;;;;;20.67;19.13;;;4.80;99.90;;;;;;5017264;28;20218;-78
2023/01/11 02:58:32;;;;;;;18.33;17.23;;;4.80;99.90;;;;;;5017591;28;20186;-78
2023/01/11 03:00:59;;;;;;;19.20;18.23;;;4.80;99.90;;;;;;5018057;28;20182;-78
2023/01/11 03:03:28;;;;;;;10.67;9.97;;;4.80;99.90;;;;;;5018739;28;20516;-78
2023/01/11 03:06:06;;;;;;;9.83;9.07;;;4.80;99.90;;;;;;5020147;28;20228;-78
2023/01/11 03:08:50;;;;;;;17.13;16.13;;;4.90;99.90;;;;;;5021969;28;20190;-78
2023/01/11 03:15:22;;;;;;;13.93;12.73;;;5.00;99.90;;;;;;5020036;28;20226;-78
2023/01/11 03:18:13;;;;;;;9.57;8.90;;;5.00;99.90;;;;;;4959754;29;20213;-78
2023/01/11 03:21:21;;;;;;;5.97;5.67;;;5.10;99.90;;;;;;4986182;28;20640;-77
2023/01/11 03:24:01;;;;;;;6.40;5.80;;;5.10;99.90;;;;;;5015222;28;20286;-77
2023/01/11 03:26:50;;;;;;;7.10;6.37;;;5.10;99.90;;;;;;5016630;28;20232;-78
2023/01/11 03:29:16;;;;;;;7.70;6.73;;;5.20;99.90;;;;;;5023653;28;20209;-77
2023/01/11 03:32:04;;;;;;;6.87;6.23;;;5.20;99.90;;;;;;5030569;28;20175;-76
2023/01/11 03:34:46;;;;;;;6.97;6.47;;;5.20;99.90;;;;;;5033647;28;20707;-77
2023/01/11 03:37:26;;;;;;;8.90;8.00;;;5.20;99.90;;;;;;5039131;28;20179;-77
2023/01/11 03:40:28;;;;;;;8.17;7.77;;;5.20;99.90;;;;;;5023051;28;20176;-77
2023/01/11 03:43:12;;;;;;;9.07;8.27;;;5.30;99.90;;;;;;5016339;28;20278;-77
2023/01/11 03:45:46;;;;;;;9.40;8.87;;;5.30;99.90;;;;;;5016537;28;20214;-77
2023/01/11 03:48:18;;;;;;;8.63;7.30;;;5.30;99.90;;;;;;5011273;28;20194;-77
2023/01/11 03:51:06;;;;;;;8.43;7.73;;;5.30;99.90;;;;;;5031453;28;20189;-77
2023/01/11 03:53:35;;;;;;;8.20;7.60;;;5.40;99.90;;;;;;5032086;28;20186;-77
2023/01/11 03:56:04;;;;;;;9.67;8.70;;;5.30;99.90;;;;;;5032002;28;20206;-77
2023/01/11 03:58:50;;;;;;;8.87;8.10;;;5.30;99.90;;;;;;5029183;28;20191;-76
2023/01/11 04:01:16;;;;;;;10.17;9.50;;;5.30;99.90;;;;;;5016247;28;20765;-78
2023/01/11 04:03:42;;;;;;;9.37;8.70;;;5.30;99.90;;;;;;5020361;28;20183;-78
2023/01/11 04:06:10;;;;;;;12.53;11.40;;;5.30;99.90;;;;;;5016126;28;20222;-78
2023/01/11 04:08:35;;;;;;;9.77;9.13;;;5.30;99.90;;;;;;5014495;28;20741;-76
2023/01/11 04:11:04;;;;;;;9.07;8.40;;;5.30;99.90;;;;;;5026366;28;20175;-76
2023/01/11 04:13:31;;;;;;;11.80;10.73;;;5.30;99.90;;;;;;5030331;28;20630;-77
2023/01/11 04:15:57;;;;;;;11.43;10.63;;;5.20;99.90;;;;;;5030315;28;20210;-76
2023/01/11 04:18:23;;;;;;;10.17;9.20;;;5.20;99.90;;;;;;5027754;28;20175;-77
2023/01/11 04:20:49;;;;;;;9.10;8.37;;;5.10;99.90;;;;;;5020390;28;20556;-76
2023/01/11 04:23:15;;;;;;;11.37;9.13;;;5.20;99.90;;;;;;5014856;28;20640;-75
2023/01/11 04:25:40;;;;;;;10.77;8.13;;;5.10;99.90;;;;;;5020629;28;20207;-77
2023/01/11 04:28:06;;;;;;;9.97;9.37;;;5.20;99.90;;;;;;5019299;28;20645;-77
2023/01/11 04:30:32;;;;;;;10.53;9.73;;;5.20;99.90;;;;;;5024814;28;20186;-77
2023/01/11 04:32:58;;;;;;;20.67;19.37;;;5.20;99.90;;;;;;5031451;28;20190;-77
2023/01/11 04:35:25;;;;;;;13.47;12.37;;;5.30;99.90;;;;;;5011931;28;20215;-77
2023/01/11 04:37:55;;;;;;;16.73;14.73;;;5.30;99.90;;;;;;5011927;28;20238;-77
2023/01/11 04:40:23;;;;;;;10.67;9.90;;;5.30;99.90;;;;;;5013368;28;20226;-77
2023/01/11 04:42:49;;;;;;;9.57;8.77;;;5.30;99.90;;;;;;5012543;28;20195;-77
2023/01/11 04:45:15;;;;;;;10.17;9.47;;;5.30;99.90;;;;;;5012547;28;20222;-78
2023/01/11 04:47:40;;;;;;;8.13;7.63;;;5.30;99.90;;;;;;5013186;28;20183;-78
2023/01/11 04:50:07;;;;;;;22.03;20.30;;;5.40;99.90;;;;;;5016821;28;20188;-78
2023/01/11 04:52:33;;;;;;;15.67;14.13;;;5.40;99.90;;;;;;5007337;28;20185;-75
2023/01/11 04:54:58;;;;;;;14.17;12.83;;;5.40;99.90;;;;;;5009872;28;20215;-75
2023/01/11 04:57:24;;;;;;;12.03;10.93;;;5.30;99.90;;;;;;5009511;28;20180;-75
2023/01/11 04:59:50;;;;;;;9.53;8.93;;;5.30;99.90;;;;;;5009504;28;20423;-75
2023/01/11 05:02:16;;;;;;;11.00;8.73;;;5.30;99.90;;;;;;5012114;28;20272;-75
2023/01/11 05:04:42;;;;;;;9.83;9.00;;;5.30;99.90;;;;;;5011065;28;20714;-75
2023/01/11 05:07:09;;;;;;;11.93;11.07;;;5.40;99.90;;;;;;5008657;28;20184;-76
2023/01/11 05:09:35;;;;;;;13.87;12.80;;;5.40;99.90;;;;;;5011183;28;20187;-76
2023/01/11 05:12:01;;;;;;;9.50;8.70;;;5.40;99.90;;;;;;5007199;28;20437;-76
2023/01/11 05:14:27;;;;;;;14.77;13.87;;;5.30;99.90;;;;;;5008553;28;20251;-75
2023/01/11 05:16:53;;;;;;;12.03;10.83;;;5.20;99.90;;;;;;5008725;28;20214;-75
2023/01/11 05:19:19;;;;;;;8.67;8.10;;;5.10;99.90;;;;;;5010320;28;20191;-75
2023/01/11 05:21:44;;;;;;;8.97;8.10;;;5.10;99.90;;;;;;5008412;28;20198;-75
2023/01/11 05:24:13;;;;;;;7.87;7.27;;;5.00;99.90;;;;;;5009075;28;20239;-75
2023/01/11 05:26:41;;;;;;;7.33;6.73;;;5.10;99.90;;;;;;5010293;28;20270;-76
2023/01/11 05:29:11;;;;;;;7.33;6.73;;;5.20;99.90;;;;;;5008029;28;20226;-75
2023/01/11 05:31:38;;;;;;;7.60;7.17;;;5.20;99.90;;;;;;5010137;28;20190;-74
2023/01/11 05:34:08;;;;;;;7.70;7.10;;;5.30;99.90;;;;;;5008792;28;20223;-76
2023/01/11 05:36:34;;;;;;;9.47;8.87;;;5.30;99.90;;;;;;5009791;28;20262;-75
2023/01/11 05:39:00;;;;;;;6.83;6.23;;;5.40;99.90;;;;;;5009580;28;20187;-75
2023/01/11 05:41:27;;;;;;;10.07;9.37;;;5.30;99.90;;;;;;5013051;28;20209;-76
2023/01/11 05:46:40;;;;;;;10.40;7.53;;;5.20;99.90;;;;;;5012918;28;20189;-75
2023/01/11 05:49:07;;;;;;;8.33;7.83;;;5.20;99.90;;;;;;5011197;28;20180;-76
2023/01/11 05:51:33;;;;;;;8.40;7.90;;;5.20;99.90;;;;;;5011055;28;20219;-76
2023/01/11 05:54:00;;;;;;;8.77;7.87;;;5.20;99.90;;;;;;5012061;28;20207;-76
2023/01/11 05:56:26;;;;;;;8.60;7.90;;;5.20;99.90;;;;;;5012309;28;20710;-76
2023/01/11 05:58:52;;;;;;;9.77;9.07;;;5.20;99.90;;;;;;5013362;28;20299;-76
2023/01/11 06:01:20;;;;;;;9.07;8.57;;;5.20;99.90;;;;;;5014783;28;20259;-76
2023/01/11 06:03:47;;;;;;;8.70;8.03;;;5.20;99.90;;;;;;5013960;28;20172;-76
2023/01/11 06:06:13;;;;;;;9.57;8.80;;;5.10;99.90;;;;;;5013695;28;21089;-75
2023/01/11 06:08:38;;;;;;;8.73;8.13;;;5.00;99.90;;;;;;5013431;28;20184;-76
2023/01/11 06:11:04;;;;;;;7.90;7.17;;;5.10;99.90;;;;;;5014388;28;20187;-75
2023/01/11 06:13:32;;;;;;;9.67;8.93;;;5.10;99.90;;;;;;5013447;28;20985;-76
2023/01/11 06:16:04;;;;;;;10.37;9.57;;;5.10;99.90;;;;;;5013047;28;20218;-74
2023/01/11 06:18:33;;;;;;;11.03;9.87;;;5.10;99.90;;;;;;5013332;28;20304;-77
2023/01/11 06:21:00;;;;;;;9.30;8.70;;;5.20;99.90;;;;;;5013883;28;20188;-78
2023/01/11 06:23:27;;;;;;;9.10;8.30;;;5.20;99.90;;;;;;5014024;28;20184;-78
2023/01/11 06:25:53;;;;;;;9.27;8.37;;;5.10;99.90;;;;;;5013071;28;20195;-77
2023/01/11 06:28:20;;;;;;;9.83;9.03;;;5.00;99.90;;;;;;5012241;28;20183;-76
2023/01/11 06:30:54;;;;;;;9.73;8.93;;;5.00;99.90;;;;;;5013875;28;20195;-75
2023/01/11 06:33:21;;;;;;;9.87;9.27;;;4.90;99.90;;;;;;5011370;28;20730;-75
2023/01/11 06:35:47;;;;;;;9.33;8.73;;;4.80;99.90;;;;;;5013475;28;20250;-75
2023/01/11 06:38:15;;;;;;;12.83;11.70;;;4.70;99.90;;;;;;5010383;28;20255;-75
2023/01/11 06:40:41;;;;;;;11.13;10.23;;;4.60;99.90;;;;;;5013846;28;20253;-75
2023/01/11 06:43:08;;;;;;;8.97;8.27;;;4.60;99.90;;;;;;5012560;28;20258;-75
2023/01/11 06:45:37;;;;;;;10.47;9.30;;;4.50;99.90;;;;;;5010967;28;20250;-75
2023/01/11 06:48:04;;;;;;;7.47;6.77;;;4.40;99.90;;;;;;5010955;28;20241;-75
2023/01/11 06:50:30;;;;;;;9.07;6.90;;;4.40;99.90;;;;;;5012819;28;20534;-75
2023/01/11 06:53:00;;;;;;;8.07;7.57;;;4.40;99.90;;;;;;5013568;28;20234;-75
2023/01/11 06:55:27;;;;;;;7.43;6.83;;;4.40;99.90;;;;;;5012110;28;20219;-75
2023/01/11 06:57:53;;;;;;;19.93;18.80;;;4.30;99.90;;;;;;5011271;28;20183;-75
2023/01/11 07:00:20;;;;;;;17.20;16.20;;;4.40;99.90;;;;;;5012117;28;20622;-75
2023/01/11 07:02:46;;;;;;;12.13;11.23;;;4.50;99.90;;;;;;5013391;28;20663;-75
2023/01/11 07:05:12;;;;;;;43.10;40.60;;;4.40;99.90;;;;;;5012048;28;20691;-78
2023/01/11 07:07:40;;;;;;;10.50;9.73;;;4.40;99.90;;;;;;5011270;28;20664;-77
2023/01/11 07:10:08;;;;;;;10.73;9.77;;;4.40;99.90;;;;;;5012047;28;20652;-78
2023/01/11 07:12:34;;;;;;;33.40;31.37;;;4.30;99.90;;;;;;5013225;28;20223;-77
2023/01/11 07:15:00;;;;;;;52.40;49.37;;;4.30;99.90;;;;;;5011737;28;20313;-77
2023/01/11 07:17:26;;;;;;;10.57;7.00;;;4.20;99.90;;;;;;5012426;28;20549;-77
2023/01/11 07:19:52;;;;;;;8.47;7.50;;;4.20;99.90;;;;;;5011930;28;20180;-77
2023/01/11 07:22:17;;;;;;;12.77;7.80;;;4.30;99.90;;;;;;5013257;28;20175;-77
2023/01/11 07:24:43;;;;;;;8.27;7.57;;;4.20;99.90;;;;;;5011767;28;20210;-77
2023/01/11 07:27:09;;;;;;;9.93;8.90;;;4.20;99.90;;;;;;5012269;28;20186;-77
2023/01/11 07:29:35;;;;;;;7.87;7.27;;;4.10;99.90;;;;;;5012944;28;20269;-77
2023/01/11 07:32:00;;;;;;;6.90;6.33;;;4.20;99.90;;;;;;5011829;28;20191;-77
2023/01/11 07:34:26;;;;;;;17.10;15.93;;;4.10;99.90;;;;;;5011592;28;20651;-77
2023/01/11 07:36:52;;;;;;;21.33;20.00;;;4.20;99.90;;;;;;5012198;28;20658;-77
2023/01/11 07:39:17;;;;;;;20.83;19.43;;;4.20;99.90;;;;;;5013123;28;20266;-77
2023/01/11 07:44:27;;;;;;;21.03;19.70;;;4.20;99.90;;;;;;5012741;28;20207;-77
2023/01/11 07:46:53;;;;;;;17.77;16.57;;;4.30;99.90;;;;;;5012124;28;20256;-77
2023/01/11 07:49:19;;;;;;;15.77;14.67;;;4.40;99.90;;;;;;5012872;28;20623;-77
2023/01/11 07:51:45;;;;;;;14.20;12.80;;;4.40;99.90;;;;;;5011704;28;20182;-76
2023/01/11 07:54:10;;;;;;;21.10;19.80;;;4.50;99.90;;;;;;5011521;28;20223;-76
2023/01/11 07:56:36;;;;;;;34.67;32.60;;;4.50;99.90;;;;;;5012798;28;20183;-77
2023/01/11 07:59:02;;;;;;;35.60;33.50;;;4.50;99.90;;;;;;5011847;28;20206;-77
2023/01/11 08:01:28;;;;;;;20.00;18.87;;;4.50;99.90;;;;;;5012559;28;20594;-76
2023/01/11 08:03:53;;;;;;;11.80;10.87;;;4.60;99.90;;;;;;5012147;28;20660;-77
2023/01/11 08:06:19;;;;;;;18.13;17.10;;;4.60;99.90;;;;;;5012669;28;20563;-76
2023/01/11 08:08:45;;;;;;;29.43;27.43;;;4.70;99.90;;;;;;5011495;28;20210;-77
2023/01/11 08:16:40;;;;;;;30.87;29.20;;;5.10;99.90;;;;;;5012130;28;20187;-77
2023/01/11 08:19:05;;;;;;;35.13;33.20;;;5.30;99.90;;;;;;5011513;28;20172;-76
2023/01/11 08:21:31;;;;;;;46.13;43.57;;;5.40;99.90;;;;;;5012097;28;20491;-77
2023/01/11 08:23:58;;;;;;;13.93;13.10;;;5.50;99.90;;;;;;5010817;28;20207;-77
2023/01/11 08:26:25;;;;;;;10.00;8.07;;;5.70;99.90;;;;;;5010784;28;20218;-77
2023/01/11 08:28:52;;;;;;;7.90;7.20;;;5.80;99.90;;;;;;5009958;28;20188;-77
2023/01/11 08:31:18;;;;;;;8.03;7.43;;;6.00;99.90;;;;;;5010798;28;20662;-77
2023/01/11 08:33:44;;;;;;;10.20;9.50;;;6.10;99.90;;;;;;5010605;28;20179;-77
2023/01/11 08:36:11;;;;;;;10.93;10.13;;;6.20;99.90;;;;;;5011721;28;20577;-75
2023/01/11 08:38:37;;;;;;;19.77;18.57;;;6.30;99.90;;;;;;5011090;28;20269;-77
2023/01/11 08:41:09;;;;;;;13.53;12.73;;;6.50;99.90;;;;;;5010910;28;20222;-77
2023/01/11 08:43:39;;;;;;;12.37;11.33;;;6.60;99.90;;;;;;5011841;28;20187;-77
2023/01/11 08:46:06;;;;;;;13.50;12.67;;;6.70;99.90;;;;;;5011788;28;20672;-77
2023/01/11 08:48:31;;;;;;;12.67;11.67;;;6.80;99.90;;;;;;5010812;28;20296;-77
2023/01/11 08:50:57;;;;;;;12.33;11.43;;;6.90;99.90;;;;;;5010435;28;20266;-77
2023/01/11 08:53:23;;;;;;;17.73;16.63;;;7.10;99.90;;;;;;5011630;28;20278;-76
2023/01/11 08:55:50;;;;;;;17.43;16.33;;;7.10;99.90;;;;;;5011632;28;20215;-77
2023/01/11 08:58:16;;;;;;;12.70;11.80;;;7.20;99.90;;;;;;5009757;28;20180;-76
2023/01/11 09:00:42;;;;;;;19.13;17.97;;;7.30;99.90;;;;;;5011784;28;20186;-77
2023/01/11 09:03:10;;;;;;;39.17;36.60;;;7.30;99.90;;;;;;5010266;28;20266;-76
2023/01/11 09:05:37;;;;;;;35.10;33.13;;;7.40;99.90;;;;;;5010301;28;20214;-77
2023/01/11 09:08:03;;;;;;;40.17;38.00;;;7.40;99.90;;;;;;5010792;28;20186;-77
2023/01/11 09:10:29;;;;;;;39.63;37.30;;;7.50;99.90;;;;;;5011689;28;20295;-76
2023/01/11 09:12:55;;;;;;;30.43;28.73;;;7.50;99.90;;;;;;5010393;28;20271;-76
2023/01/11 09:15:22;;;;;;;30.67;29.03;;;7.60;99.90;;;;;;5009661;28;20251;-76
2023/01/11 09:17:49;;;;;;;35.13;33.23;;;7.60;99.90;;;;;;5009424;28;20187;-76
2023/01/11 09:20:16;;;;;;;43.73;41.10;;;7.60;99.90;;;;;;5010316;28;20179;-75
2023/01/11 09:22:46;;;;;;;48.53;45.97;;;7.50;99.90;;;;;;5010279;28;20179;-76
2023/01/11 09:25:12;;;;;;;46.57;44.10;;;7.40;99.90;;;;;;5011002;28;20210;-76
2023/01/11 09:27:42;;;;;;;42.93;40.43;;;7.40;99.90;;;;;;5009425;28;20184;-76
2023/01/11 09:30:09;;;;;;;25.77;24.30;;;7.40;99.90;;;;;;5011229;28;20549;-76
2023/01/11 09:32:35;;;;;;;23.03;21.60;;;7.40;99.90;;;;;;5010138;28;20633;-76
2023/01/11 09:35:02;;;;;;;9.83;9.10;;;7.30;99.90;;;;;;5010975;28;20222;-76
2023/01/11 09:37:28;;;;;;;7.90;7.20;;;7.40;99.90;;;;;;5008925;28;20203;-76
2023/01/11 09:39:54;;;;;;;7.80;7.07;;;7.40;99.90;;;;;;5009989;28;20210;-77
2023/01/11 09:42:25;;;;;;;8.03;7.27;;;7.50;99.90;;;;;;5011269;28;20211;-76
2023/01/11 09:44:59;;;;;;;8.80;8.10;;;7.50;99.90;;;;;;5009685;28;20578;-76
2023/01/11 09:47:35;;;;;;;8.47;7.87;;;7.60;99.90;;;;;;5009258;28;20179;-76
2023/01/11 09:50:09;;;;;;;15.40;14.30;;;7.60;99.90;;;;;;5009712;28;20556;-76
2023/01/11 09:52:39;;;;;;;19.73;18.47;;;7.60;99.90;;;;;;5011083;28;20191;-76
2023/01/11 09:55:21;;;;;;;18.00;17.00;;;7.50;99.90;;;;;;5011655;28;20273;-77
2023/01/11 09:58:27;;;;;;;11.57;10.47;;;7.50;99.90;;;;;;5008877;28;20221;-77
2023/01/11 10:01:09;;;;;;;8.53;7.77;;;7.50;99.90;;;;;;5009897;28;20218;-76
2023/01/11 10:04:05;;;;;;;10.70;9.00;;;7.50;99.90;;;;;;5010423;28;20176;-76
2023/01/11 10:06:43;;;;;;;15.67;14.27;;;7.40;99.90;;;;;;5009991;28;20845;-77
2023/01/11 10:09:17;;;;;;;19.53;17.97;;;7.40;99.90;;;;;;5010666;28;20649;-76
2023/01/11 10:12:09;;;;;;;33.77;31.53;;;7.40;99.90;;;;;;5011463;28;20246;-77
2023/01/11 10:14:57;;;;;;;30.33;28.33;;;7.40;99.90;;;;;;5010684;28;20215;-77
2023/01/11 10:17:45;;;;;;;28.10;26.33;;;7.40;99.90;;;;;;5008996;28;20183;-77
2023/01/11 10:20:29;;;;;;;27.60;25.77;;;7.40;99.90;;;;;;5009672;28;20271;-77
2023/01/11 10:23:05;;;;;;;25.23;23.57;;;7.40;99.90;;;;;;5010946;28;20175;-76
2023/01/11 10:25:41;;;;;;;31.67;29.50;;;7.50;99.90;;;;;;5009667;28;20246;-76
2023/01/11 10:28:18;;;;;;;30.37;28.40;;;7.50;99.90;;;;;;5013587;28;20183;-75
2023/01/11 10:33:51;;;;;;;24.67;23.17;;;7.60;99.90;;;;;;5014231;28;20187;-76
2023/01/11 10:39:34;;;;;;;16.37;15.10;;;7.70;99.90;;;;;;5013386;28;20187;-76
2023/01/11 10:42:10;;;;;;;12.73;11.70;;;7.70;99.90;;;;;;5014281;28;20184;-77
2023/01/11 10:45:13;;;;;;;9.60;8.63;;;7.80;99.90;;;;;;5012828;28;20258;-77
2023/01/11 10:47:46;;;;;;;9.60;8.60;;;7.80;99.90;;;;;;5006740;28;20265;-77
2023/01/11 10:50:22;;;;;;;10.10;7.20;;;7.90;99.90;;;;;;5013926;28;20660;-78
2023/01/11 10:52:58;;;;;;;9.00;7.47;;;7.90;99.90;;;;;;5016093;28;20648;-78
2023/01/11 10:55:49;;;;;;;7.50;7.00;;;7.90;99.90;;;;;;5011955;28;20246;-78
2023/01/11 10:58:17;;;;;;;8.13;7.50;;;8.00;99.90;;;;;;4993334;28;20187;-77
2023/01/11 11:01:09;;;;;;;7.70;7.00;;;8.00;99.90;;;;;;5012513;28;20172;-77
2023/01/11 11:03:48;;;;;;;5.90;5.50;;;8.00;99.90;;;;;;5012678;28;20176;-77
2023/01/11 11:06:19;;;;;;;6.07;5.60;;;8.00;99.90;;;;;;5012340;28;20226;-77
2023/01/11 11:09:10;;;;;;;9.90;9.03;;;7.90;99.90;;;;;;5011523;28;20188;-77
2023/01/11 11:12:11;;;;;;;10.93;9.90;;;7.90;99.90;;;;;;5012409;28;20258;-77
2023/01/11 11:14:56;;;;;;;9.50;8.80;;;7.90;99.90;;;;;;5001661;28;20746;-77
2023/01/11 11:17:29;;;;;;;12.80;11.87;;;8.00;99.90;;;;;;5012533;28;20263;-77
2023/01/11 11:19:56;;;;;;;17.93;17.03;;;8.00;99.90;;;;;;5014317;28;20629;-77
2023/01/11 11:22:22;;;;;;;14.73;13.93;;;8.10;99.90;;;;;;5012202;28;20636;-77
2023/01/11 11:25:03;;;;;;;15.27;14.53;;;8.20;99.90;;;;;;5013215;28;20200;-77
2023/01/11 11:27:40;;;;;;;15.97;15.17;;;8.30;99.90;;;;;;5011314;28;20183;-77
2023/01/11 11:30:10;;;;;;;17.47;16.37;;;8.40;99.90;;;;;;5012886;28;20195;-77
2023/01/11 11:32:39;;;;;;;12.83;12.00;;;8.50;99.90;;;;;;5013257;28;20196;-77
2023/01/11 11:35:09;;;;;;;8.80;8.10;;;8.50;99.90;;;;;;5012920;28;20246;-77
2023/01/11 11:37:43;;;;;;;9.57;8.87;;;8.50;99.90;;;;;;5010581;28;20187;-76
2023/01/11 11:40:28;;;;;;;13.37;12.37;;;8.60;99.90;;;;;;5013166;28;20187;-76
2023/01/11 11:43:21;;;;;;;13.30;12.33;;;8.70;99.90;;;;;;5012939;28;20624;-77
2023/01/11 11:45:53;;;;;;;11.57;10.97;;;8.70;99.90;;;;;;5013163;28;20298;-77
2023/01/11 11:48:20;;;;;;;16.80;15.80;;;8.70;99.90;;;;;;5011109;28;20183;-76
2023/01/11 11:50:47;;;;;;;19.10;17.97;;;8.70;99.90;;;;;;5013152;28;20245;-77
2023/01/11 11:53:37;;;;;;;17.63;16.53;;;8.70;99.90;;;;;;5016163;28;20187;-75
2023/01/11 11:56:13;;;;;;;12.00;11.20;;;8.70;99.90;;;;;;5017187;28;20243;-76
2023/01/11 11:58:41;;;;;;;12.90;11.80;;;8.80;99.90;;;;;;5012106;28;20227;-76
2023/01/11 12:01:20;;;;;;;9.27;8.47;;;8.80;99.90;;;;;;5012826;28;20182;-77
2023/01/11 12:03:47;;;;;;;13.40;12.70;;;8.90;99.90;;;;;;5011532;28;20183;-77
2023/01/11 12:06:21;;;;;;;17.50;16.63;;;8.90;99.90;;;;;;5012603;28;20215;-77
2023/01/11 12:08:48;;;;;;;19.00;18.03;;;8.90;99.90;;;;;;5010596;28;20202;-76
2023/01/11 12:11:21;;;;;;;12.70;11.90;;;8.90;99.90;;;;;;5012574;28;20262;-76
2023/01/11 12:14:00;;;;;;;25.37;23.97;;;9.00;99.90;;;;;;5011415;28;20214;-77
2023/01/11 12:16:38;;;;;;;21.07;19.97;;;9.00;99.90;;;;;;5011436;28;20188;-75
2023/01/11 12:19:26;;;;;;;27.73;26.27;;;9.00;99.90;;;;;;5012015;28;20179;-76
2023/01/11 12:21:52;;;;;;;18.03;16.83;;;9.10;99.90;;;;;;5012722;28;20179;-75
2023/01/11 12:24:19;;;;;;;19.50;18.43;;;9.10;99.90;;;;;;5011071;28;20692;-75
2023/01/11 12:26:57;;;;;;;20.33;19.27;;;9.10;99.90;;;;;;5012273;28;20187;-76
2023/01/11 12:29:52;;;;;;;23.37;21.90;;;9.20;99.90;;;;;;5011082;28;20183;-75
2023/01/11 12:32:36;;;;;;;20.03;18.93;;;9.20;99.90;;;;;;5010063;28;20215;-75
2023/01/11 12:35:26;;;;;;;15.63;14.63;;;9.20;99.90;;;;;;5012038;28;20219;-75
2023/01/11 12:38:07;;;;;;;17.40;16.50;;;9.30;99.90;;;;;;5009915;28;20187;-76
2023/01/11 12:40:43;;;;;;;19.23;18.13;;;9.30;99.90;;;;;;5012098;28;20263;-76
2023/01/11 12:43:26;;;;;;;27.87;26.20;;;9.30;99.90;;;;;;5010676;28;20192;-76
2023/01/11 12:46:30;;;;;;;29.60;28.10;;;9.40;99.90;;;;;;5010690;28;20230;-75
2023/01/11 12:49:11;;;;;;;23.70;22.50;;;9.30;99.90;;;;;;4994775;28;20191;-76
2023/01/11 12:51:59;;;;;;;20.53;19.43;;;9.30;99.90;;;;;;5012737;28;20191;-76
2023/01/11 12:54:36;;;;;;;18.03;17.13;;;9.30;99.90;;;;;;5011152;28;20309;-77
2023/01/11 12:57:05;;;;;;;13.73;12.73;;;9.40;99.90;;;;;;5011055;28;20277;-77
2023/01/11 13:00:20;;;;;;;11.23;10.53;;;9.40;99.90;;;;;;5011822;28;20179;-76
2023/01/11 13:03:26;;;;;;;17.43;16.53;;;9.40;99.90;;;;;;4989904;28;20567;-77
2023/01/11 13:06:12;;;;;;;18.93;17.27;;;9.50;99.90;;;;;;5010583;28;20219;-76
2023/01/11 13:09:13;;;;;;;11.40;10.37;;;9.50;99.90;;;;;;5010856;28;20710;-76
2023/01/11 13:11:57;;;;;;;16.93;16.00;;;9.50;99.90;;;;;;5010928;28;20238;-76
2023/01/11 13:14:42;;;;;;;56.83;53.97;;;9.50;99.90;;;;;;5010164;28;20219;-76
2023/01/11 13:17:16;;;;;;;151.30;143.97;;;9.50;99.90;;;;;;5009711;28;20190;-76
2023/01/11 13:19:51;;;;;;;103.77;98.77;;;9.60;99.90;;;;;;5010358;28;20171;-76
2023/01/11 13:22:20;;;;;;;73.87;70.33;;;9.70;99.90;;;;;;5011524;28;20190;-76
2023/01/11 13:24:48;;;;;;;39.23;37.13;;;9.70;99.90;;;;;;5011681;28;20672;-76
2023/01/11 13:27:21;;;;;;;33.93;32.27;;;9.80;99.90;;;;;;5010645;28;20190;-76
2023/01/11 13:29:53;;;;;;;57.63;54.90;;;9.80;99.90;;;;;;5010404;28;20211;-76
2023/01/11 13:32:23;;;;;;;135.23;128.87;;;9.80;99.90;;;;;;5010346;28;20206;-76
2023/01/11 13:35:02;;;;;;;103.17;98.27;;;9.80;99.90;;;;;;5011114;28;20222;-75
2023/01/11 13:37:43;;;;;;;83.40;79.33;;;9.80;99.90;;;;;;5010459;28;20211;-76
2023/01/11 13:40:30;;;;;;;47.37;45.17;;;9.80;99.90;;;;;;5011300;28;20179;-75
2023/01/11 13:43:07;;;;;;;33.00;31.33;;;9.80;99.90;;;;;;5011182;28;20183;-76